sensor_id;sensor_type;location;lat;lon;timestamp;temperature;humidity
60495;DHT22;46342;49.046;11.920;2023-04-15T00:02:23;9.50;59.20
60495;DHT22;46342;49.046;11.920;2023-04-15T00:04:48;9.50;59.20
60495;DHT22;46342;49.046;11.920;2023-04-15T00:07:14;9.50;59.20
60495;DHT22;46342;49.046;11.920;2023-04-15T00:09:41;9.50;59.20
60495;DHT22;46342;49.046;11.920;2023-04-15T00:12:07;9.50;59.30
60495;DHT22;46342;49.046;11.920;2023-04-15T00:14:34;9.50;59.30
60495;DHT22;46342;49.046;11.920;2023-04-15T00:17:01;9.50;59.30
60495;DHT22;46342;49.046;11.920;2023-04-15T00:19:26;9.50;59.30
60495;DHT22;46342;49.046;11.920;2023-04-15T00:21:52;9.50;59.20
60495;DHT22;46342;49.046;11.920;2023-04-15T00:24:17;9.50;59.30
60495;DHT22;46342;49.046;11.920;2023-04-15T00:26:43;9.50;59.30
60495;DHT22;46342;49.046;11.920;2023-04-15T00:29:09;9.50;59.30
60495;DHT22;46342;49.046;11.920;2023-04-15T00:31:35;9.50;59.40
60495;DHT22;46342;49.046;11.920;2023-04-15T00:34:00;9.40;59.30
60495;DHT22;46342;49.046;11.920;2023-04-15T00:36:26;9.50;59.40
60495;DHT22;46342;49.046;11.920;2023-04-15T00:38:52;9.50;59.40
60495;DHT22;46342;49.046;11.920;2023-04-15T00:41:18;9.50;59.40
60495;DHT22;46342;49.046;11.920;2023-04-15T00:43:45;9.50;60.00
60495;DHT22;46342;49.046;11.920;2023-04-15T00:46:14;9.50;59.40
60495;DHT22;46342;49.046;11.920;2023-04-15T00:48:40;9.50;59.60
60495;DHT22;46342;49.046;11.920;2023-04-15T00:51:06;9.40;59.40
60495;DHT22;46342;49.046;11.920;2023-04-15T00:53:33;9.40;59.40
60495;DHT22;46342;49.046;11.920;2023-04-15T00:55:59;9.40;59.30
60495;DHT22;46342;49.046;11.920;2023-04-15T00:58:25;9.40;59.30
60495;DHT22;46342;49.046;11.920;2023-04-15T01:00:53;9.50;59.40
60495;DHT22;46342;49.046;11.920;2023-04-15T01:03:19;9.40;59.40
60495;DHT22;46342;49.046;11.920;2023-04-15T01:05:45;9.40;59.40
60495;DHT22;46342;49.046;11.920;2023-04-15T01:08:11;9.50;59.40
60495;DHT22;46342;49.046;11.920;2023-04-15T01:10:37;9.40;59.40
60495;DHT22;46342;49.046;11.920;2023-04-15T01:13:03;9.40;59.40
60495;DHT22;46342;49.046;11.920;2023-04-15T01:15:29;9.50;59.50
60495;DHT22;46342;49.046;11.920;2023-04-15T01:17:57;9.40;59.50
60495;DHT22;46342;49.046;11.920;2023-04-15T01:20:23;9.40;59.50
60495;DHT22;46342;49.046;11.920;2023-04-15T01:22:49;9.40;59.50
60495;DHT22;46342;49.046;11.920;2023-04-15T01:25:24;9.40;59.40
60495;DHT22;46342;49.046;11.920;2023-04-15T01:27:51;9.40;59.60
60495;DHT22;46342;49.046;11.920;2023-04-15T01:30:17;9.40;59.40
60495;DHT22;46342;49.046;11.920;2023-04-15T01:32:42;9.40;59.50
60495;DHT22;46342;49.046;11.920;2023-04-15T01:35:08;9.40;59.50
60495;DHT22;46342;49.046;11.920;2023-04-15T01:37:35;9.40;59.50
60495;DHT22;46342;49.046;11.920;2023-04-15T01:40:01;9.40;59.60
60495;DHT22;46342;49.046;11.920;2023-04-15T01:42:27;9.40;59.60
60495;DHT22;46342;49.046;11.920;2023-04-15T01:44:53;9.40;59.60
60495;DHT22;46342;49.046;11.920;2023-04-15T01:47:19;9.40;59.60
60495;DHT22;46342;49.046;11.920;2023-04-15T01:49:45;9.50;59.70
60495;DHT22;46342;49.046;11.920;2023-04-15T01:52:11;9.40;59.60
60495;DHT22;46342;49.046;11.920;2023-04-15T01:54:36;9.40;59.60
60495;DHT22;46342;49.046;11.920;2023-04-15T01:57:02;9.40;59.60
60495;DHT22;46342;49.046;11.920;2023-04-15T01:59:28;9.40;59.60
60495;DHT22;46342;49.046;11.920;2023-04-15T02:01:54;9.40;59.60
60495;DHT22;46342;49.046;11.920;2023-04-15T02:04:19;9.40;59.60
60495;DHT22;46342;49.046;11.920;2023-04-15T02:06:45;9.40;59.60
60495;DHT22;46342;49.046;11.920;2023-04-15T02:09:11;9.40;59.60
60495;DHT22;46342;49.046;11.920;2023-04-15T02:11:36;9.40;59.60
60495;DHT22;46342;49.046;11.920;2023-04-15T02:14:03;9.40;59.60
60495;DHT22;46342;49.046;11.920;2023-04-15T02:16:32;9.40;59.60
60495;DHT22;46342;49.046;11.920;2023-04-15T02:18:59;9.40;59.60
60495;DHT22;46342;49.046;11.920;2023-04-15T02:21:25;9.40;59.60
60495;DHT22;46342;49.046;11.920;2023-04-15T02:23:51;9.40;60.30
60495;DHT22;46342;49.046;11.920;2023-04-15T02:26:18;9.40;59.60
60495;DHT22;46342;49.046;11.920;2023-04-15T02:28:45;9.40;59.60
60495;DHT22;46342;49.046;11.920;2023-04-15T02:31:11;9.40;59.60
60495;DHT22;46342;49.046;11.920;2023-04-15T02:33:37;9.40;59.60
60495;DHT22;46342;49.046;11.920;2023-04-15T02:36:03;9.40;59.60
60495;DHT22;46342;49.046;11.920;2023-04-15T02:38:28;9.40;59.60
60495;DHT22;46342;49.046;11.920;2023-04-15T02:40:56;9.40;59.60
60495;DHT22;46342;49.046;11.920;2023-04-15T02:43:22;9.40;59.60
60495;DHT22;46342;49.046;11.920;2023-04-15T02:45:47;9.40;59.60
60495;DHT22;46342;49.046;11.920;2023-04-15T02:48:13;9.40;59.60
60495;DHT22;46342;49.046;11.920;2023-04-15T02:50:38;9.40;59.60
60495;DHT22;46342;49.046;11.920;2023-04-15T02:53:05;9.40;59.60
60495;DHT22;46342;49.046;11.920;2023-04-15T02:55:31;9.40;59.60
60495;DHT22;46342;49.046;11.920;2023-04-15T02:57:57;9.50;59.70
60495;DHT22;46342;49.046;11.920;2023-04-15T03:00:25;9.40;59.60
60495;DHT22;46342;49.046;11.920;2023-04-15T03:02:51;9.40;59.60
60495;DHT22;46342;49.046;11.920;2023-04-15T03:05:21;9.40;59.60
60495;DHT22;46342;49.046;11.920;2023-04-15T03:07:49;9.50;59.70
60495;DHT22;46342;49.046;11.920;2023-04-15T03:10:14;9.40;59.60
60495;DHT22;46342;49.046;11.920;2023-04-15T03:12:40;9.40;59.70
60495;DHT22;46342;49.046;11.920;2023-04-15T03:15:06;9.40;59.70
60495;DHT22;46342;49.046;11.920;2023-04-15T03:17:32;9.40;59.70
60495;DHT22;46342;49.046;11.920;2023-04-15T03:19:58;9.40;59.70
60495;DHT22;46342;49.046;11.920;2023-04-15T03:22:23;9.40;59.80
60495;DHT22;46342;49.046;11.920;2023-04-15T03:24:50;9.40;59.80
60495;DHT22;46342;49.046;11.920;2023-04-15T03:27:16;9.40;59.80
60495;DHT22;46342;49.046;11.920;2023-04-15T03:29:42;9.40;59.90
60495;DHT22;46342;49.046;11.920;2023-04-15T03:32:07;9.40;59.90
60495;DHT22;46342;49.046;11.920;2023-04-15T03:34:33;9.30;59.80
60495;DHT22;46342;49.046;11.920;2023-04-15T03:36:58;9.30;59.80
60495;DHT22;46342;49.046;11.920;2023-04-15T03:39:24;9.30;59.90
60495;DHT22;46342;49.046;11.920;2023-04-15T03:41:50;9.30;60.00
60495;DHT22;46342;49.046;11.920;2023-04-15T03:44:15;9.30;59.90
60495;DHT22;46342;49.046;11.920;2023-04-15T03:46:41;9.20;60.00
60495;DHT22;46342;49.046;11.920;2023-04-15T03:49:07;9.20;60.00
60495;DHT22;46342;49.046;11.920;2023-04-15T03:51:32;9.20;60.10
60495;DHT22;46342;49.046;11.920;2023-04-15T03:53:58;9.20;60.20
60495;DHT22;46342;49.046;11.920;2023-04-15T03:56:23;9.20;60.20
60495;DHT22;46342;49.046;11.920;2023-04-15T03:58:49;9.20;60.40
60495;DHT22;46342;49.046;11.920;2023-04-15T04:01:15;9.20;60.40
60495;DHT22;46342;49.046;11.920;2023-04-15T04:03:41;9.10;60.30
60495;DHT22;46342;49.046;11.920;2023-04-15T04:06:06;9.10;60.40
60495;DHT22;46342;49.046;11.920;2023-04-15T04:08:32;9.20;60.60
60495;DHT22;46342;49.046;11.920;2023-04-15T04:10:58;9.10;60.50
60495;DHT22;46342;49.046;11.920;2023-04-15T04:13:24;9.10;60.70
60495;DHT22;46342;49.046;11.920;2023-04-15T04:15:49;9.10;60.70
60495;DHT22;46342;49.046;11.920;2023-04-15T04:18:15;9.00;60.70
60495;DHT22;46342;49.046;11.920;2023-04-15T04:20:41;9.00;60.70
60495;DHT22;46342;49.046;11.920;2023-04-15T04:23:06;9.00;60.80
60495;DHT22;46342;49.046;11.920;2023-04-15T04:25:32;9.00;60.90
60495;DHT22;46342;49.046;11.920;2023-04-15T04:27:58;9.00;60.90
60495;DHT22;46342;49.046;11.920;2023-04-15T04:30:23;9.00;61.00
60495;DHT22;46342;49.046;11.920;2023-04-15T04:32:49;9.00;61.10
60495;DHT22;46342;49.046;11.920;2023-04-15T04:35:16;9.00;61.10
60495;DHT22;46342;49.046;11.920;2023-04-15T04:37:41;9.00;61.10
60495;DHT22;46342;49.046;11.920;2023-04-15T04:40:07;9.00;61.20
60495;DHT22;46342;49.046;11.920;2023-04-15T04:42:34;8.90;61.30
60495;DHT22;46342;49.046;11.920;2023-04-15T04:44:59;8.90;61.20
60495;DHT22;46342;49.046;11.920;2023-04-15T04:47:25;8.90;61.30
60495;DHT22;46342;49.046;11.920;2023-04-15T04:49:50;8.90;61.40
60495;DHT22;46342;49.046;11.920;2023-04-15T04:52:16;8.90;61.40
60495;DHT22;46342;49.046;11.920;2023-04-15T04:54:42;8.90;61.50
60495;DHT22;46342;49.046;11.920;2023-04-15T04:57:07;8.90;61.50
60495;DHT22;46342;49.046;11.920;2023-04-15T04:59:33;8.90;61.50
60495;DHT22;46342;49.046;11.920;2023-04-15T05:01:58;8.90;61.70
60495;DHT22;46342;49.046;11.920;2023-04-15T05:04:24;8.90;61.70
60495;DHT22;46342;49.046;11.920;2023-04-15T05:06:50;8.90;61.70
60495;DHT22;46342;49.046;11.920;2023-04-15T05:09:16;8.90;61.80
60495;DHT22;46342;49.046;11.920;2023-04-15T05:11:42;8.90;61.90
60495;DHT22;46342;49.046;11.920;2023-04-15T05:14:07;8.90;61.90
60495;DHT22;46342;49.046;11.920;2023-04-15T05:16:33;8.90;61.90
60495;DHT22;46342;49.046;11.920;2023-04-15T05:18:58;9.00;62.00
60495;DHT22;46342;49.046;11.920;2023-04-15T05:21:24;8.90;61.90
60495;DHT22;46342;49.046;11.920;2023-04-15T05:23:50;8.90;61.90
60495;DHT22;46342;49.046;11.920;2023-04-15T05:26:16;8.90;61.90
60495;DHT22;46342;49.046;11.920;2023-04-15T05:28:42;8.90;61.90
60495;DHT22;46342;49.046;11.920;2023-04-15T05:31:07;8.90;61.90
60495;DHT22;46342;49.046;11.920;2023-04-15T05:33:33;8.90;62.00
60495;DHT22;46342;49.046;11.920;2023-04-15T05:35:59;8.90;62.00
60495;DHT22;46342;49.046;11.920;2023-04-15T05:38:24;8.90;62.10
60495;DHT22;46342;49.046;11.920;2023-04-15T05:40:50;8.90;62.10
60495;DHT22;46342;49.046;11.920;2023-04-15T05:43:16;8.90;62.10
60495;DHT22;46342;49.046;11.920;2023-04-15T05:45:41;8.90;62.10
60495;DHT22;46342;49.046;11.920;2023-04-15T05:48:07;8.90;62.20
60495;DHT22;46342;49.046;11.920;2023-04-15T05:50:32;8.90;62.10
60495;DHT22;46342;49.046;11.920;2023-04-15T05:52:58;8.90;62.20
60495;DHT22;46342;49.046;11.920;2023-04-15T05:55:24;8.90;62.20
60495;DHT22;46342;49.046;11.920;2023-04-15T05:57:50;8.90;62.10
60495;DHT22;46342;49.046;11.920;2023-04-15T06:00:15;8.80;62.10
60495;DHT22;46342;49.046;11.920;2023-04-15T06:02:41;8.80;62.20
60495;DHT22;46342;49.046;11.920;2023-04-15T06:05:07;8.80;62.20
60495;DHT22;46342;49.046;11.920;2023-04-15T06:07:34;8.80;62.30
60495;DHT22;46342;49.046;11.920;2023-04-15T06:10:02;8.80;62.30
60495;DHT22;46342;49.046;11.920;2023-04-15T06:12:27;8.80;62.30
60495;DHT22;46342;49.046;11.920;2023-04-15T06:14:53;8.80;62.50
60495;DHT22;46342;49.046;11.920;2023-04-15T06:17:18;8.80;62.50
60495;DHT22;46342;49.046;11.920;2023-04-15T06:19:44;8.80;62.50
60495;DHT22;46342;49.046;11.920;2023-04-15T06:22:09;8.80;62.20
60495;DHT22;46342;49.046;11.920;2023-04-15T06:24:35;8.80;62.40
60495;DHT22;46342;49.046;11.920;2023-04-15T06:27:01;8.80;62.40
60495;DHT22;46342;49.046;11.920;2023-04-15T06:29:27;8.80;62.50
60495;DHT22;46342;49.046;11.920;2023-04-15T06:31:53;8.80;62.20
60495;DHT22;46342;49.046;11.920;2023-04-15T06:34:20;8.80;62.30
60495;DHT22;46342;49.046;11.920;2023-04-15T06:36:46;8.80;62.20
60495;DHT22;46342;49.046;11.920;2023-04-15T06:39:11;8.70;62.00
60495;DHT22;46342;49.046;11.920;2023-04-15T06:41:37;8.70;62.20
60495;DHT22;46342;49.046;11.920;2023-04-15T06:44:03;8.70;62.20
60495;DHT22;46342;49.046;11.920;2023-04-15T06:46:28;8.70;62.20
60495;DHT22;46342;49.046;11.920;2023-04-15T06:48:54;8.70;62.40
60495;DHT22;46342;49.046;11.920;2023-04-15T06:51:20;8.70;62.30
60495;DHT22;46342;49.046;11.920;2023-04-15T06:53:45;8.70;62.30
60495;DHT22;46342;49.046;11.920;2023-04-15T06:56:11;8.70;62.50
60495;DHT22;46342;49.046;11.920;2023-04-15T06:58:37;8.60;62.20
60495;DHT22;46342;49.046;11.920;2023-04-15T07:01:02;8.60;62.50
60495;DHT22;46342;49.046;11.920;2023-04-15T07:03:28;8.60;62.50
60495;DHT22;46342;49.046;11.920;2023-04-15T07:05:54;8.60;62.70
60495;DHT22;46342;49.046;11.920;2023-04-15T07:08:20;8.60;62.40
60495;DHT22;46342;49.046;11.920;2023-04-15T07:10:46;8.60;62.60
60495;DHT22;46342;49.046;11.920;2023-04-15T07:13:12;8.60;62.60
60495;DHT22;46342;49.046;11.920;2023-04-15T07:15:37;8.70;62.70
60495;DHT22;46342;49.046;11.920;2023-04-15T07:18:03;8.60;62.70
60495;DHT22;46342;49.046;11.920;2023-04-15T07:20:29;8.60;62.80
60495;DHT22;46342;49.046;11.920;2023-04-15T07:22:55;8.60;62.90
60495;DHT22;46342;49.046;11.920;2023-04-15T07:25:20;8.60;63.00
60495;DHT22;46342;49.046;11.920;2023-04-15T07:27:46;8.60;63.00
60495;DHT22;46342;49.046;11.920;2023-04-15T07:30:12;8.60;63.00
60495;DHT22;46342;49.046;11.920;2023-04-15T07:32:37;8.60;63.00
60495;DHT22;46342;49.046;11.920;2023-04-15T07:35:03;8.60;63.00
60495;DHT22;46342;49.046;11.920;2023-04-15T07:37:29;8.60;63.10
60495;DHT22;46342;49.046;11.920;2023-04-15T07:39:55;8.70;63.10
60495;DHT22;46342;49.046;11.920;2023-04-15T07:42:21;8.70;63.40
60495;DHT22;46342;49.046;11.920;2023-04-15T07:44:46;8.70;63.40
60495;DHT22;46342;49.046;11.920;2023-04-15T07:47:12;8.70;63.50
60495;DHT22;46342;49.046;11.920;2023-04-15T07:49:38;8.70;63.90
60495;DHT22;46342;49.046;11.920;2023-04-15T07:52:03;8.70;63.70
60495;DHT22;46342;49.046;11.920;2023-04-15T07:54:29;8.80;63.70
60495;DHT22;46342;49.046;11.920;2023-04-15T07:56:54;8.80;63.70
60495;DHT22;46342;49.046;11.920;2023-04-15T07:59:20;8.80;63.70
60495;DHT22;46342;49.046;11.920;2023-04-15T08:01:46;8.80;63.60
60495;DHT22;46342;49.046;11.920;2023-04-15T08:04:12;8.80;63.50
60495;DHT22;46342;49.046;11.920;2023-04-15T08:06:38;8.80;63.40
60495;DHT22;46342;49.046;11.920;2023-04-15T08:09:05;8.80;63.50
60495;DHT22;46342;49.046;11.920;2023-04-15T08:11:31;8.90;63.80
60495;DHT22;46342;49.046;11.920;2023-04-15T08:13:57;8.80;63.70
60495;DHT22;46342;49.046;11.920;2023-04-15T08:16:24;8.90;63.80
60495;DHT22;46342;49.046;11.920;2023-04-15T08:18:50;8.90;64.00
60495;DHT22;46342;49.046;11.920;2023-04-15T08:21:17;9.00;64.10
60495;DHT22;46342;49.046;11.920;2023-04-15T08:23:45;8.90;63.90
60495;DHT22;46342;49.046;11.920;2023-04-15T08:26:11;8.90;64.70
60495;DHT22;46342;49.046;11.920;2023-04-15T08:28:38;9.00;63.70
60495;DHT22;46342;49.046;11.920;2023-04-15T08:31:04;9.00;64.00
60495;DHT22;46342;49.046;11.920;2023-04-15T08:33:30;9.00;63.70
60495;DHT22;46342;49.046;11.920;2023-04-15T08:35:55;9.00;63.70
60495;DHT22;46342;49.046;11.920;2023-04-15T08:38:22;9.00;63.70
60495;DHT22;46342;49.046;11.920;2023-04-15T08:40:48;9.00;63.70
60495;DHT22;46342;49.046;11.920;2023-04-15T08:43:21;9.00;63.70
60495;DHT22;46342;49.046;11.920;2023-04-15T08:45:51;9.10;64.60
60495;DHT22;46342;49.046;11.920;2023-04-15T08:48:18;9.10;64.10
60495;DHT22;46342;49.046;11.920;2023-04-15T08:50:45;9.10;64.00
60495;DHT22;46342;49.046;11.920;2023-04-15T08:53:11;9.10;64.00
60495;DHT22;46342;49.046;11.920;2023-04-15T08:55:44;9.10;64.00
60495;DHT22;46342;49.046;11.920;2023-04-15T08:58:14;9.20;64.80
60495;DHT22;46342;49.046;11.920;2023-04-15T09:00:40;9.20;64.40
60495;DHT22;46342;49.046;11.920;2023-04-15T09:03:07;9.20;64.20
60495;DHT22;46342;49.046;11.920;2023-04-15T09:05:34;9.20;64.00
60495;DHT22;46342;49.046;11.920;2023-04-15T09:08:01;9.20;64.00
60495;DHT22;46342;49.046;11.920;2023-04-15T09:10:27;9.20;64.20
60495;DHT22;46342;49.046;11.920;2023-04-15T09:12:53;9.30;64.30
60495;DHT22;46342;49.046;11.920;2023-04-15T09:15:19;9.20;64.20
60495;DHT22;46342;49.046;11.920;2023-04-15T09:17:45;9.30;64.30
60495;DHT22;46342;49.046;11.920;2023-04-15T09:20:15;9.30;64.30
60495;DHT22;46342;49.046;11.920;2023-04-15T09:22:44;9.30;65.10
60495;DHT22;46342;49.046;11.920;2023-04-15T09:27:58;9.40;65.50
60495;DHT22;46342;49.046;11.920;2023-04-15T09:30:24;9.40;64.40
60495;DHT22;46342;49.046;11.920;2023-04-15T09:32:56;9.40;64.40
60495;DHT22;46342;49.046;11.920;2023-04-15T09:35:23;9.40;64.60
60495;DHT22;46342;49.046;11.920;2023-04-15T09:37:50;9.40;64.50
60495;DHT22;46342;49.046;11.920;2023-04-15T09:40:39;9.50;64.50
60495;DHT22;46342;49.046;11.920;2023-04-15T09:43:06;9.50;65.00
60495;DHT22;46342;49.046;11.920;2023-04-15T09:45:33;9.50;64.30
60495;DHT22;46342;49.046;11.920;2023-04-15T09:48:16;9.50;64.30
60495;DHT22;46342;49.046;11.920;2023-04-15T09:50:43;9.60;64.60
60495;DHT22;46342;49.046;11.920;2023-04-15T09:53:16;9.60;64.20
60495;DHT22;46342;49.046;11.920;2023-04-15T09:55:52;9.60;64.60
60495;DHT22;46342;49.046;11.920;2023-04-15T09:58:30;9.60;64.60
60495;DHT22;46342;49.046;11.920;2023-04-15T10:00:57;9.60;64.10
60495;DHT22;46342;49.046;11.920;2023-04-15T10:03:31;9.60;64.30
60495;DHT22;46342;49.046;11.920;2023-04-15T10:05:58;9.60;64.50
60495;DHT22;46342;49.046;11.920;2023-04-15T10:08:26;9.60;64.30
60495;DHT22;46342;49.046;11.920;2023-04-15T10:10:52;9.60;64.40
60495;DHT22;46342;49.046;11.920;2023-04-15T10:13:24;9.60;64.60
60495;DHT22;46342;49.046;11.920;2023-04-15T10:18:20;9.70;65.10
60495;DHT22;46342;49.046;11.920;2023-04-15T10:20:48;9.70;64.60
60495;DHT22;46342;49.046;11.920;2023-04-15T10:23:15;9.80;64.50
60495;DHT22;46342;49.046;11.920;2023-04-15T10:25:42;9.80;64.60
60495;DHT22;46342;49.046;11.920;2023-04-15T10:28:08;9.80;64.60
60495;DHT22;46342;49.046;11.920;2023-04-15T10:30:34;9.90;64.80
60495;DHT22;46342;49.046;11.920;2023-04-15T10:33:02;9.90;64.70
60495;DHT22;46342;49.046;11.920;2023-04-15T10:35:30;9.90;64.70
60495;DHT22;46342;49.046;11.920;2023-04-15T10:37:56;10.00;63.50
60495;DHT22;46342;49.046;11.920;2023-04-15T10:40:29;10.00;63.20
60495;DHT22;46342;49.046;11.920;2023-04-15T10:43:00;10.00;63.60
60495;DHT22;46342;49.046;11.920;2023-04-15T10:45:30;10.10;63.40
60495;DHT22;46342;49.046;11.920;2023-04-15T10:47:57;10.10;63.60
60495;DHT22;46342;49.046;11.920;2023-04-15T10:50:26;10.10;63.60
60495;DHT22;46342;49.046;11.920;2023-04-15T10:52:55;10.10;63.80
60495;DHT22;46342;49.046;11.920;2023-04-15T10:55:23;10.20;63.50
60495;DHT22;46342;49.046;11.920;2023-04-15T10:57:58;10.20;63.30
60495;DHT22;46342;49.046;11.920;2023-04-15T11:00:27;10.30;63.90
60495;DHT22;46342;49.046;11.920;2023-04-15T11:05:20;10.40;64.80
60495;DHT22;46342;49.046;11.920;2023-04-15T11:12:38;10.60;64.30
60495;DHT22;46342;49.046;11.920;2023-04-15T11:17:52;10.80;64.80
60495;DHT22;46342;49.046;11.920;2023-04-15T11:20:18;10.80;64.20
60495;DHT22;46342;49.046;11.920;2023-04-15T11:22:48;10.90;64.00
60495;DHT22;46342;49.046;11.920;2023-04-15T11:25:28;11.00;64.30
60495;DHT22;46342;49.046;11.920;2023-04-15T11:27:54;11.10;63.40
60495;DHT22;46342;49.046;11.920;2023-04-15T11:30:22;11.10;63.20
60495;DHT22;46342;49.046;11.920;2023-04-15T11:32:49;11.20;63.40
60495;DHT22;46342;49.046;11.920;2023-04-15T11:35:16;11.30;63.30
60495;DHT22;46342;49.046;11.920;2023-04-15T11:37:45;11.30;63.10
60495;DHT22;46342;49.046;11.920;2023-04-15T11:40:11;11.40;63.20
60495;DHT22;46342;49.046;11.920;2023-04-15T11:42:38;11.40;62.90
60495;DHT22;46342;49.046;11.920;2023-04-15T11:45:10;11.40;62.70
60495;DHT22;46342;49.046;11.920;2023-04-15T11:47:37;11.50;62.70
60495;DHT22;46342;49.046;11.920;2023-04-15T11:50:20;11.50;62.40
60495;DHT22;46342;49.046;11.920;2023-04-15T11:52:55;11.60;62.10
60495;DHT22;46342;49.046;11.920;2023-04-15T11:55:22;11.60;62.20
60495;DHT22;46342;49.046;11.920;2023-04-15T12:00:38;11.70;62.00
60495;DHT22;46342;49.046;11.920;2023-04-15T12:06:19;11.80;61.80
60495;DHT22;46342;49.046;11.920;2023-04-15T12:14:23;11.80;61.00
60495;DHT22;46342;49.046;11.920;2023-04-15T12:16:54;11.70;61.30
60495;DHT22;46342;49.046;11.920;2023-04-15T12:21:53;11.70;60.80
60495;DHT22;46342;49.046;11.920;2023-04-15T12:24:21;11.70;61.00
60495;DHT22;46342;49.046;11.920;2023-04-15T12:26:55;11.70;60.90
60495;DHT22;46342;49.046;11.920;2023-04-15T12:29:30;11.70;60.70
60495;DHT22;46342;49.046;11.920;2023-04-15T12:31:58;11.70;60.80
60495;DHT22;46342;49.046;11.920;2023-04-15T12:34:28;11.70;61.00
60495;DHT22;46342;49.046;11.920;2023-04-15T12:36:55;11.70;60.80
60495;DHT22;46342;49.046;11.920;2023-04-15T12:39:22;11.70;60.80
60495;DHT22;46342;49.046;11.920;2023-04-15T12:41:48;11.70;60.90
60495;DHT22;46342;49.046;11.920;2023-04-15T12:44:14;11.70;60.80
60495;DHT22;46342;49.046;11.920;2023-04-15T12:46:39;11.60;60.60
60495;DHT22;46342;49.046;11.920;2023-04-15T12:49:05;11.70;60.60
60495;DHT22;46342;49.046;11.920;2023-04-15T12:51:31;11.70;60.40
60495;DHT22;46342;49.046;11.920;2023-04-15T12:53:57;11.70;60.30
60495;DHT22;46342;49.046;11.920;2023-04-15T12:56:23;11.60;60.00
60495;DHT22;46342;49.046;11.920;2023-04-15T12:58:49;11.60;60.00
60495;DHT22;46342;49.046;11.920;2023-04-15T13:01:14;11.60;60.00
60495;DHT22;46342;49.046;11.920;2023-04-15T13:03:40;11.60;59.90
60495;DHT22;46342;49.046;11.920;2023-04-15T13:06:05;11.60;59.80
60495;DHT22;46342;49.046;11.920;2023-04-15T13:08:31;11.50;59.80
60495;DHT22;46342;49.046;11.920;2023-04-15T13:10:57;11.50;60.00
60495;DHT22;46342;49.046;11.920;2023-04-15T13:13:23;11.50;60.00
60495;DHT22;46342;49.046;11.920;2023-04-15T13:15:49;11.50;60.00
60495;DHT22;46342;49.046;11.920;2023-04-15T13:18:14;11.50;59.90
60495;DHT22;46342;49.046;11.920;2023-04-15T13:20:40;11.50;60.00
60495;DHT22;46342;49.046;11.920;2023-04-15T13:23:06;11.40;59.90
60495;DHT22;46342;49.046;11.920;2023-04-15T13:25:32;11.40;59.90
60495;DHT22;46342;49.046;11.920;2023-04-15T13:27:57;11.30;59.80
60495;DHT22;46342;49.046;11.920;2023-04-15T13:30:23;11.40;59.80
60495;DHT22;46342;49.046;11.920;2023-04-15T13:32:49;11.30;59.70
60495;DHT22;46342;49.046;11.920;2023-04-15T13:35:15;11.30;59.70
60495;DHT22;46342;49.046;11.920;2023-04-15T13:37:41;11.30;59.80
60495;DHT22;46342;49.046;11.920;2023-04-15T13:40:07;11.30;59.80
60495;DHT22;46342;49.046;11.920;2023-04-15T13:42:32;11.30;59.80
60495;DHT22;46342;49.046;11.920;2023-04-15T13:44:58;11.20;59.70
60495;DHT22;46342;49.046;11.920;2023-04-15T13:47:24;11.20;59.70
60495;DHT22;46342;49.046;11.920;2023-04-15T13:49:50;11.20;59.70
60495;DHT22;46342;49.046;11.920;2023-04-15T13:52:17;11.20;59.80
60495;DHT22;46342;49.046;11.920;2023-04-15T13:54:42;11.20;59.90
60495;DHT22;46342;49.046;11.920;2023-04-15T13:57:08;11.20;59.90
60495;DHT22;46342;49.046;11.920;2023-04-15T13:59:34;11.20;59.80
60495;DHT22;46342;49.046;11.920;2023-04-15T14:02:00;11.10;59.70
60495;DHT22;46342;49.046;11.920;2023-04-15T14:04:26;11.10;59.70
60495;DHT22;46342;49.046;11.920;2023-04-15T14:06:51;11.10;59.80
60495;DHT22;46342;49.046;11.920;2023-04-15T14:09:17;11.10;59.90
60495;DHT22;46342;49.046;11.920;2023-04-15T14:11:43;11.00;59.80
60495;DHT22;46342;49.046;11.920;2023-04-15T14:14:08;11.00;60.70
60495;DHT22;46342;49.046;11.920;2023-04-15T14:16:34;11.00;59.90
60495;DHT22;46342;49.046;11.920;2023-04-15T14:19:01;11.00;60.10
60495;DHT22;46342;49.046;11.920;2023-04-15T14:21:26;11.00;60.30
60495;DHT22;46342;49.046;11.920;2023-04-15T14:23:53;11.00;60.40
60495;DHT22;46342;49.046;11.920;2023-04-15T14:26:19;11.00;60.60
60495;DHT22;46342;49.046;11.920;2023-04-15T14:28:45;11.00;60.60
60495;DHT22;46342;49.046;11.920;2023-04-15T14:31:10;11.00;60.60
60495;DHT22;46342;49.046;11.920;2023-04-15T14:33:36;11.00;60.60
60495;DHT22;46342;49.046;11.920;2023-04-15T14:36:02;11.00;60.60
60495;DHT22;46342;49.046;11.920;2023-04-15T14:38:28;11.00;60.60
60495;DHT22;46342;49.046;11.920;2023-04-15T14:40:53;11.00;60.60
60495;DHT22;46342;49.046;11.920;2023-04-15T14:43:20;11.00;60.60
60495;DHT22;46342;49.046;11.920;2023-04-15T14:45:45;11.00;60.60
60495;DHT22;46342;49.046;11.920;2023-04-15T14:48:12;11.00;60.60
60495;DHT22;46342;49.046;11.920;2023-04-15T14:50:38;11.00;60.50
60495;DHT22;46342;49.046;11.920;2023-04-15T14:53:04;10.90;60.40
60495;DHT22;46342;49.046;11.920;2023-04-15T14:55:29;10.90;60.50
60495;DHT22;46342;49.046;11.920;2023-04-15T14:57:55;10.90;60.50
60495;DHT22;46342;49.046;11.920;2023-04-15T15:00:21;10.90;60.50
60495;DHT22;46342;49.046;11.920;2023-04-15T15:02:46;10.90;60.70
60495;DHT22;46342;49.046;11.920;2023-04-15T15:05:12;10.90;60.70
60495;DHT22;46342;49.046;11.920;2023-04-15T15:07:38;10.90;60.70
60495;DHT22;46342;49.046;11.920;2023-04-15T15:10:05;10.90;60.70
60495;DHT22;46342;49.046;11.920;2023-04-15T15:12:32;10.90;60.80
60495;DHT22;46342;49.046;11.920;2023-04-15T15:14:58;11.00;60.90
60495;DHT22;46342;49.046;11.920;2023-04-15T15:17:23;10.90;60.80
60495;DHT22;46342;49.046;11.920;2023-04-15T15:19:49;10.90;60.90
60495;DHT22;46342;49.046;11.920;2023-04-15T15:22:15;10.90;61.00
60495;DHT22;46342;49.046;11.920;2023-04-15T15:24:41;11.00;61.20
60495;DHT22;46342;49.046;11.920;2023-04-15T15:27:06;11.00;61.20
60495;DHT22;46342;49.046;11.920;2023-04-15T15:29:32;11.00;61.30
60495;DHT22;46342;49.046;11.920;2023-04-15T15:31:58;11.00;61.20
60495;DHT22;46342;49.046;11.920;2023-04-15T15:34:23;11.00;61.30
60495;DHT22;46342;49.046;11.920;2023-04-15T15:36:49;11.10;61.30
60495;DHT22;46342;49.046;11.920;2023-04-15T15:39:15;11.00;61.20
60495;DHT22;46342;49.046;11.920;2023-04-15T15:41:40;11.10;61.20
60495;DHT22;46342;49.046;11.920;2023-04-15T15:44:06;11.10;61.10
60495;DHT22;46342;49.046;11.920;2023-04-15T15:46:31;11.10;61.10
60495;DHT22;46342;49.046;11.920;2023-04-15T15:48:57;11.10;61.20
60495;DHT22;46342;49.046;11.920;2023-04-15T15:51:23;11.10;61.10